Time;durP1;ratioP1;P1;durP2;ratioP2;P2;SDS_P1;SDS_P2;PMS_P1;PMS_P2;Temp;Humidity;BMP_temperature;BMP_pressure;BME280_temperature;BME280_humidity;BME280_pressure;Samples;Min_cycle;Max_cycle;Signal;HPM_P1;HPM_P2
2023/03/31 17:56:20;;;;;;;7.03;1.63;;;;;;;;;;6688697;19;50861;-77
2023/03/31 17:58:45;;;;;;;6.90;1.20;;;;;;;;;;7342058;19;20014;-76
2023/03/31 18:01:11;;;;;;;6.95;1.00;;;;;;;;;;7361050;19;20106;-80
2023/03/31 18:03:37;;;;;;;3.05;0.80;;;;;;;;;;7362042;19;20010;-77
2023/03/31 18:06:07;;;;;;;3.85;0.88;;;;;;;;;;7369433;19;20013;-78
2023/03/31 18:08:33;;;;;;;5.72;1.20;;;;;;;;;;7360748;19;20511;-78
2023/03/31 18:10:58;;;;;;;6.60;1.67;;;;;;;;;;7364415;19;20006;-79
2023/03/31 18:13:23;;;;;;;8.35;1.48;;;;;;;;;;7362496;19;20098;-80
2023/03/31 18:15:51;;;;;;;10.05;2.33;;;;;;;;;;7362144;19;20028;-77
2023/03/31 18:18:17;;;;;;;9.60;2.42;;;;;;;;;;7365560;19;20007;-78
2023/03/31 18:20:42;;;;;;;11.68;2.17;;;;;;;;;;7369515;19;20006;-77
2023/03/31 18:23:07;;;;;;;11.53;3.17;;;;;;;;;;7366281;19;20462;-79
2023/03/31 18:25:32;;;;;;;13.15;2.72;;;;;;;;;;7359463;19;20271;-81
2023/03/31 18:27:58;;;;;;;18.43;3.53;;;;;;;;;;7371204;19;20505;-77
2023/03/31 18:30:23;;;;;;;16.10;3.83;;;;;;;;;;7360557;19;20268;-77
2023/03/31 18:32:48;;;;;;;17.60;3.08;;;;;;;;;;7370970;19;20270;-78
2023/03/31 18:35:13;;;;;;;24.17;3.30;;;;;;;;;;7365085;19;20419;-78
2023/03/31 18:37:38;;;;;;;16.30;3.30;;;;;;;;;;7365997;19;20270;-76
2023/03/31 18:40:04;;;;;;;16.13;3.50;;;;;;;;;;7366330;19;20029;-79
2023/03/31 18:42:29;;;;;;;18.48;3.60;;;;;;;;;;7367696;19;20633;-78
2023/03/31 18:44:54;;;;;;;21.95;4.05;;;;;;;;;;7363118;19;20455;-77
2023/03/31 18:47:19;;;;;;;18.73;3.85;;;;;;;;;;7362461;19;20001;-80
2023/03/31 18:49:47;;;;;;;14.33;2.90;;;;;;;;;;7365750;19;20002;-77
2023/03/31 18:52:12;;;;;;;19.70;3.50;;;;;;;;;;7366399;19;20246;-80
2023/03/31 18:54:37;;;;;;;20.13;4.75;;;;;;;;;;7369633;19;19987;-76
2023/03/31 18:57:02;;;;;;;17.02;2.90;;;;;;;;;;7362021;19;20247;-81
2023/03/31 18:59:28;;;;;;;17.57;2.93;;;;;;;;;;7366812;19;20034;-76
2023/03/31 19:01:53;;;;;;;12.10;3.25;;;;;;;;;;7364011;19;20588;-77
2023/03/31 19:04:18;;;;;;;14.30;2.67;;;;;;;;;;7353714;19;20045;-80
2023/03/31 19:06:43;;;;;;;13.65;2.70;;;;;;;;;;7341389;19;20066;-77
2023/03/31 19:09:11;;;;;;;12.50;2.50;;;;;;;;;;7338799;19;20734;-81
2023/03/31 19:11:37;;;;;;;14.25;2.65;;;;;;;;;;7327444;19;20294;-79
2023/03/31 19:14:02;;;;;;;13.43;3.00;;;;;;;;;;7346864;19;19998;-77
2023/03/31 19:16:27;;;;;;;18.73;3.30;;;;;;;;;;7354188;19;20251;-80
2023/03/31 19:18:52;;;;;;;17.10;2.33;;;;;;;;;;7346634;19;20332;-77
2023/03/31 19:21:18;;;;;;;14.43;3.17;;;;;;;;;;7361412;19;20762;-79
2023/03/31 19:23:44;;;;;;;14.23;2.70;;;;;;;;;;7368896;19;20359;-77
2023/03/31 19:26:12;;;;;;;15.98;3.80;;;;;;;;;;7351163;19;20399;-81
2023/03/31 19:28:37;;;;;;;13.82;3.20;;;;;;;;;;7321708;19;20584;-81
2023/03/31 19:31:03;;;;;;;14.63;2.83;;;;;;;;;;7325145;19;20405;-80
2023/03/31 19:33:28;;;;;;;14.38;2.97;;;;;;;;;;7322493;19;20327;-80
2023/03/31 19:35:53;;;;;;;15.95;3.47;;;;;;;;;;7325386;19;20032;-80
2023/03/31 19:38:20;;;;;;;17.95;3.28;;;;;;;;;;7320009;19;20007;-78
2023/03/31 19:40:46;;;;;;;16.15;3.00;;;;;;;;;;7333808;19;20098;-79
2023/03/31 19:43:18;;;;;;;17.40;3.17;;;;;;;;;;7341179;19;20052;-76
2023/03/31 19:45:43;;;;;;;12.57;2.97;;;;;;;;;;7340176;19;20515;-77
2023/03/31 19:48:10;;;;;;;13.98;2.63;;;;;;;;;;7351363;19;20021;-80
2023/03/31 19:50:35;;;;;;;17.27;2.65;;;;;;;;;;7338889;19;20100;-78
2023/03/31 19:53:00;;;;;;;14.97;2.63;;;;;;;;;;7360063;19;20653;-79
2023/03/31 19:55:26;;;;;;;13.43;2.67;;;;;;;;;;7340851;19;20718;-76
2023/03/31 19:57:51;;;;;;;10.23;2.47;;;;;;;;;;7356259;19;19998;-80
2023/03/31 20:00:18;;;;;;;17.00;3.10;;;;;;;;;;7353473;19;20254;-80
2023/03/31 20:02:43;;;;;;;11.75;2.78;;;;;;;;;;7333962;19;20009;-81
2023/03/31 20:05:08;;;;;;;20.95;3.42;;;;;;;;;;7350567;19;20335;-81
2023/03/31 20:07:33;;;;;;;11.67;2.83;;;;;;;;;;7329943;19;19999;-81
2023/03/31 20:09:58;;;;;;;14.07;2.80;;;;;;;;;;7334012;19;20255;-79
2023/03/31 20:12:24;;;;;;;11.77;2.40;;;;;;;;;;7332706;19;20246;-78
2023/03/31 20:14:49;;;;;;;15.13;2.80;;;;;;;;;;7338866;19;20252;-79
2023/03/31 20:17:15;;;;;;;9.73;2.03;;;;;;;;;;7347418;19;20492;-77
2023/03/31 20:19:40;;;;;;;12.57;2.63;;;;;;;;;;7348072;19;20889;-79
2023/03/31 20:22:05;;;;;;;13.48;2.63;;;;;;;;;;7343962;19;20003;-79
2023/03/31 20:24:31;;;;;;;12.93;2.53;;;;;;;;;;7338295;19;20620;-79
2023/03/31 20:26:56;;;;;;;14.90;3.07;;;;;;;;;;7342992;19;20262;-78
2023/03/31 20:29:22;;;;;;;12.68;2.70;;;;;;;;;;7344212;19;20256;-82
2023/03/31 20:31:49;;;;;;;11.23;2.30;;;;;;;;;;7343926;19;20010;-77
2023/03/31 20:34:15;;;;;;;13.25;2.67;;;;;;;;;;7349418;19;20006;-79
2023/03/31 20:36:42;;;;;;;13.13;2.30;;;;;;;;;;7334660;19;20437;-78
2023/03/31 20:39:07;;;;;;;14.98;2.55;;;;;;;;;;7349005;19;20223;-76
2023/03/31 20:41:34;;;;;;;11.73;2.60;;;;;;;;;;7348975;19;20027;-80
2023/03/31 20:43:59;;;;;;;13.25;2.83;;;;;;;;;;7341868;19;19991;-79
2023/03/31 20:46:25;;;;;;;14.82;2.60;;;;;;;;;;7335434;19;20011;-79
2023/03/31 20:48:51;;;;;;;15.52;3.03;;;;;;;;;;7339847;19;20091;-78
2023/03/31 20:51:21;;;;;;;14.52;2.85;;;;;;;;;;7334750;19;20007;-79
2023/03/31 20:53:47;;;;;;;14.90;3.17;;;;;;;;;;7333405;19;20074;-77
2023/03/31 20:56:17;;;;;;;16.23;3.40;;;;;;;;;;7342696;19;20364;-79
2023/03/31 20:58:42;;;;;;;12.80;2.40;;;;;;;;;;7352407;19;19998;-79
2023/03/31 21:01:07;;;;;;;11.90;2.72;;;;;;;;;;7351843;19;20325;-81
2023/03/31 21:03:33;;;;;;;12.52;2.90;;;;;;;;;;7348170;19;20005;-81
2023/03/31 21:06:02;;;;;;;10.50;2.42;;;;;;;;;;7344995;19;20058;-78
2023/03/31 21:08:28;;;;;;;12.20;2.42;;;;;;;;;;7346253;19;20030;-80
2023/03/31 21:10:56;;;;;;;13.52;2.50;;;;;;;;;;7357666;19;20352;-83
2023/03/31 21:13:21;;;;;;;12.25;2.85;;;;;;;;;;7353394;19;19999;-79
2023/03/31 21:15:49;;;;;;;16.70;3.08;;;;;;;;;;7356195;19;20301;-82
2023/03/31 21:18:15;;;;;;;8.98;2.60;;;;;;;;;;7361937;19;20545;-79
2023/03/31 21:20:40;;;;;;;17.80;3.33;;;;;;;;;;7350243;19;20539;-82
2023/03/31 21:23:05;;;;;;;14.52;3.25;;;;;;;;;;7356365;19;20014;-84
2023/03/31 21:25:31;;;;;;;16.73;2.90;;;;;;;;;;7352050;19;20401;-81
2023/03/31 21:27:56;;;;;;;14.35;3.17;;;;;;;;;;7344011;19;20908;-82
2023/03/31 21:30:21;;;;;;;12.63;2.90;;;;;;;;;;7348244;19;20813;-81
2023/03/31 21:32:46;;;;;;;14.23;3.00;;;;;;;;;;7369195;19;20103;-82
2023/03/31 21:35:12;;;;;;;19.08;3.28;;;;;;;;;;7363189;19;20462;-77
2023/03/31 21:37:37;;;;;;;12.77;3.17;;;;;;;;;;7351498;19;20010;-78
2023/03/31 21:40:03;;;;;;;11.85;2.55;;;;;;;;;;7353066;19;20267;-79
2023/03/31 21:42:28;;;;;;;15.48;2.80;;;;;;;;;;7348390;19;20481;-76
2023/03/31 21:44:57;;;;;;;11.17;2.80;;;;;;;;;;7350013;19;20123;-76
2023/03/31 21:47:23;;;;;;;10.13;2.88;;;;;;;;;;7341224;19;20256;-80
2023/03/31 21:49:48;;;;;;;15.85;2.90;;;;;;;;;;7340299;19;20539;-79
2023/03/31 21:52:14;;;;;;;17.80;2.77;;;;;;;;;;7346865;19;19999;-77
2023/03/31 21:54:39;;;;;;;17.40;2.60;;;;;;;;;;7345506;19;20309;-79
2023/03/31 21:57:04;;;;;;;13.00;2.67;;;;;;;;;;7337047;19;19998;-78
2023/03/31 21:59:30;;;;;;;9.13;2.63;;;;;;;;;;7337593;19;20229;-77
2023/03/31 22:01:56;;;;;;;9.52;2.00;;;;;;;;;;7312373;19;20464;-80
2023/03/31 22:04:21;;;;;;;11.43;2.72;;;;;;;;;;7342886;19;20025;-77
2023/03/31 22:06:46;;;;;;;13.98;2.58;;;;;;;;;;7344897;19;20341;-78
2023/03/31 22:09:11;;;;;;;10.07;2.55;;;;;;;;;;7325762;19;20341;-78
2023/03/31 22:11:36;;;;;;;11.73;2.42;;;;;;;;;;7332266;19;20711;-78
2023/03/31 22:14:02;;;;;;;9.00;2.30;;;;;;;;;;7344443;19;20256;-77
2023/03/31 22:16:27;;;;;;;10.15;2.63;;;;;;;;;;7339276;19;20601;-77
2023/03/31 22:18:53;;;;;;;13.13;2.63;;;;;;;;;;7345144;19;20084;-76
2023/03/31 22:21:23;;;;;;;13.85;2.88;;;;;;;;;;7347662;19;20021;-78
2023/03/31 22:23:53;;;;;;;15.02;3.60;;;;;;;;;;7333633;19;20006;-79
2023/03/31 22:26:19;;;;;;;8.45;2.38;;;;;;;;;;7336611;19;20499;-77
2023/03/31 22:28:44;;;;;;;13.27;2.33;;;;;;;;;;7355756;19;20088;-80
2023/03/31 22:31:09;;;;;;;10.33;2.20;;;;;;;;;;7348152;19;20520;-78
2023/03/31 22:33:34;;;;;;;14.97;2.60;;;;;;;;;;7350509;19;20263;-80
2023/03/31 22:36:00;;;;;;;12.35;2.80;;;;;;;;;;7356662;19;20768;-83
2023/03/31 22:38:25;;;;;;;9.63;2.45;;;;;;;;;;7357401;19;19995;-78
2023/03/31 22:40:50;;;;;;;9.77;2.38;;;;;;;;;;7324046;19;20297;-80
2023/03/31 22:43:16;;;;;;;9.18;1.90;;;;;;;;;;7351149;19;20014;-77
2023/03/31 22:45:41;;;;;;;6.75;1.88;;;;;;;;;;7353760;19;20007;-81
2023/03/31 22:48:08;;;;;;;7.97;2.13;;;;;;;;;;7354236;19;20089;-83
2023/03/31 22:50:33;;;;;;;7.50;1.92;;;;;;;;;;7359897;19;20249;-81
2023/03/31 22:52:59;;;;;;;8.70;1.73;;;;;;;;;;7362251;19;20347;-80
2023/03/31 22:55:24;;;;;;;9.05;1.52;;;;;;;;;;7360034;19;20262;-85
2023/03/31 22:57:49;;;;;;;7.30;1.70;;;;;;;;;;7352806;19;20931;-81
2023/03/31 23:00:14;;;;;;;8.67;2.00;;;;;;;;;;7360532;19;20232;-79
2023/03/31 23:02:40;;;;;;;10.98;2.10;;;;;;;;;;7360744;19;20800;-81
2023/03/31 23:05:05;;;;;;;9.82;2.53;;;;;;;;;;7361354;19;19998;-85
2023/03/31 23:07:30;;;;;;;9.00;1.95;;;;;;;;;;7357479;19;20451;-81
2023/03/31 23:09:56;;;;;;;7.28;1.83;;;;;;;;;;7362342;19;20015;-81
2023/03/31 23:12:23;;;;;;;7.80;1.90;;;;;;;;;;7359159;19;20029;-81
2023/03/31 23:14:48;;;;;;;8.82;1.73;;;;;;;;;;7352832;19;20247;-82
2023/03/31 23:17:13;;;;;;;9.27;2.33;;;;;;;;;;7358260;19;20004;-79
2023/03/31 23:19:38;;;;;;;11.17;2.00;;;;;;;;;;7358049;19;20235;-83
2023/03/31 23:22:04;;;;;;;10.07;2.20;;;;;;;;;;7360602;19;20268;-80
2023/03/31 23:24:30;;;;;;;9.55;1.77;;;;;;;;;;7356205;19;20679;-82
2023/03/31 23:26:55;;;;;;;9.27;2.03;;;;;;;;;;7356995;19;20061;-78
2023/03/31 23:29:20;;;;;;;9.25;2.00;;;;;;;;;;7361962;19;20023;-81
2023/03/31 23:31:45;;;;;;;7.25;1.67;;;;;;;;;;7358566;19;20018;-85
2023/03/31 23:34:12;;;;;;;8.40;1.55;;;;;;;;;;7363107;19;20030;-83
2023/03/31 23:36:37;;;;;;;9.65;1.92;;;;;;;;;;7350372;19;20091;-82
2023/03/31 23:39:05;;;;;;;7.10;1.80;;;;;;;;;;7367723;19;20022;-79
2023/03/31 23:41:30;;;;;;;7.78;1.70;;;;;;;;;;7368855;19;20550;-77
2023/03/31 23:43:56;;;;;;;10.18;2.33;;;;;;;;;;7350483;19;20048;-80
2023/03/31 23:46:23;;;;;;;10.80;2.08;;;;;;;;;;7346280;19;20007;-79
2023/03/31 23:48:48;;;;;;;7.30;1.70;;;;;;;;;;7357015;19;19995;-80
2023/03/31 23:51:13;;;;;;;7.03;1.50;;;;;;;;;;7365103;19;19999;-79
2023/03/31 23:53:38;;;;;;;8.13;1.80;;;;;;;;;;7357210;19;20272;-78
2023/03/31 23:56:06;;;;;;;9.40;2.03;;;;;;;;;;7368687;19;20003;-78
2023/03/31 23:58:31;;;;;;;5.55;1.80;;;;;;;;;;7361198;19;20002;-76
